sensor_id;sensor_type;location;lat;lon;timestamp;P1;durP1;ratioP1;P2;durP2;ratioP2
36855;SDS011;22788;51.434;6.786;2022-10-31T00:01:09;8.75;;;6.30;;
36855;SDS011;22788;51.434;6.786;2022-10-31T00:03:37;9.15;;;5.72;;
36855;SDS011;22788;51.434;6.786;2022-10-31T00:06:03;9.13;;;6.60;;
36855;SDS011;22788;51.434;6.786;2022-10-31T00:08:29;8.63;;;6.10;;
36855;SDS011;22788;51.434;6.786;2022-10-31T00:10:55;9.23;;;6.13;;
36855;SDS011;22788;51.434;6.786;2022-10-31T00:13:21;9.48;;;6.43;;
36855;SDS011;22788;51.434;6.786;2022-10-31T00:15:47;10.85;;;5.85;;
36855;SDS011;22788;51.434;6.786;2022-10-31T00:18:13;10.38;;;6.30;;
36855;SDS011;22788;51.434;6.786;2022-10-31T00:20:40;9.73;;;5.65;;
36855;SDS011;22788;51.434;6.786;2022-10-31T00:23:06;10.75;;;5.88;;
36855;SDS011;22788;51.434;6.786;2022-10-31T00:25:33;11.75;;;6.40;;
36855;SDS011;22788;51.434;6.786;2022-10-31T00:28:00;11.55;;;6.32;;
36855;SDS011;22788;51.434;6.786;2022-10-31T00:30:26;7.72;;;5.70;;
36855;SDS011;22788;51.434;6.786;2022-10-31T00:32:52;10.20;;;5.80;;
36855;SDS011;22788;51.434;6.786;2022-10-31T00:35:18;8.80;;;6.10;;
36855;SDS011;22788;51.434;6.786;2022-10-31T00:37:46;8.70;;;6.05;;
36855;SDS011;22788;51.434;6.786;2022-10-31T00:40:12;9.20;;;6.15;;
36855;SDS011;22788;51.434;6.786;2022-10-31T00:42:38;7.65;;;5.80;;
36855;SDS011;22788;51.434;6.786;2022-10-31T00:45:05;9.10;;;5.88;;
36855;SDS011;22788;51.434;6.786;2022-10-31T00:47:31;10.95;;;6.43;;
36855;SDS011;22788;51.434;6.786;2022-10-31T00:49:57;7.97;;;5.68;;
36855;SDS011;22788;51.434;6.786;2022-10-31T00:52:23;10.93;;;6.50;;
36855;SDS011;22788;51.434;6.786;2022-10-31T00:54:51;12.38;;;6.75;;
36855;SDS011;22788;51.434;6.786;2022-10-31T00:57:17;11.35;;;6.20;;
36855;SDS011;22788;51.434;6.786;2022-10-31T00:59:43;8.77;;;5.85;;
36855;SDS011;22788;51.434;6.786;2022-10-31T01:02:09;7.82;;;6.05;;
36855;SDS011;22788;51.434;6.786;2022-10-31T01:04:35;10.98;;;6.25;;
36855;SDS011;22788;51.434;6.786;2022-10-31T01:07:01;9.52;;;6.43;;
36855;SDS011;22788;51.434;6.786;2022-10-31T01:09:27;10.02;;;6.53;;
36855;SDS011;22788;51.434;6.786;2022-10-31T01:11:54;8.65;;;6.53;;
36855;SDS011;22788;51.434;6.786;2022-10-31T01:14:20;9.23;;;6.18;;
36855;SDS011;22788;51.434;6.786;2022-10-31T01:16:46;7.57;;;5.93;;
36855;SDS011;22788;51.434;6.786;2022-10-31T01:19:12;8.32;;;6.15;;
36855;SDS011;22788;51.434;6.786;2022-10-31T01:21:38;8.88;;;6.10;;
36855;SDS011;22788;51.434;6.786;2022-10-31T01:24:05;7.45;;;5.93;;
36855;SDS011;22788;51.434;6.786;2022-10-31T01:26:31;10.80;;;6.18;;
36855;SDS011;22788;51.434;6.786;2022-10-31T01:29:00;10.35;;;6.80;;
36855;SDS011;22788;51.434;6.786;2022-10-31T01:31:27;8.93;;;6.22;;
36855;SDS011;22788;51.434;6.786;2022-10-31T01:33:55;9.95;;;6.00;;
36855;SDS011;22788;51.434;6.786;2022-10-31T01:36:22;8.63;;;6.18;;
36855;SDS011;22788;51.434;6.786;2022-10-31T01:38:50;11.18;;;6.50;;
36855;SDS011;22788;51.434;6.786;2022-10-31T01:41:18;9.75;;;6.10;;
36855;SDS011;22788;51.434;6.786;2022-10-31T01:43:50;10.45;;;6.72;;
36855;SDS011;22788;51.434;6.786;2022-10-31T01:46:20;6.85;;;5.38;;
36855;SDS011;22788;51.434;6.786;2022-10-31T01:48:49;10.63;;;6.15;;
36855;SDS011;22788;51.434;6.786;2022-10-31T01:51:16;9.25;;;5.85;;
36855;SDS011;22788;51.434;6.786;2022-10-31T01:53:45;10.02;;;6.32;;
36855;SDS011;22788;51.434;6.786;2022-10-31T01:56:13;10.45;;;6.20;;
36855;SDS011;22788;51.434;6.786;2022-10-31T01:58:41;9.40;;;5.88;;
36855;SDS011;22788;51.434;6.786;2022-10-31T02:01:08;8.82;;;6.10;;
36855;SDS011;22788;51.434;6.786;2022-10-31T02:03:36;9.57;;;6.05;;
36855;SDS011;22788;51.434;6.786;2022-10-31T02:06:02;10.55;;;5.85;;
36855;SDS011;22788;51.434;6.786;2022-10-31T02:08:32;9.05;;;5.95;;
36855;SDS011;22788;51.434;6.786;2022-10-31T02:11:00;10.52;;;6.25;;
36855;SDS011;22788;51.434;6.786;2022-10-31T02:13:26;10.40;;;6.22;;
36855;SDS011;22788;51.434;6.786;2022-10-31T02:15:54;9.48;;;6.13;;
36855;SDS011;22788;51.434;6.786;2022-10-31T02:18:22;9.50;;;6.13;;
36855;SDS011;22788;51.434;6.786;2022-10-31T02:20:54;10.18;;;6.75;;
36855;SDS011;22788;51.434;6.786;2022-10-31T02:23:34;10.13;;;6.38;;
36855;SDS011;22788;51.434;6.786;2022-10-31T02:26:31;10.88;;;6.07;;
36855;SDS011;22788;51.434;6.786;2022-10-31T02:29:20;8.18;;;5.80;;
36855;SDS011;22788;51.434;6.786;2022-10-31T02:32:16;9.98;;;6.22;;
36855;SDS011;22788;51.434;6.786;2022-10-31T02:34:50;9.13;;;6.63;;
36855;SDS011;22788;51.434;6.786;2022-10-31T02:37:24;8.48;;;6.45;;
36855;SDS011;22788;51.434;6.786;2022-10-31T02:39:56;7.50;;;6.22;;
36855;SDS011;22788;51.434;6.786;2022-10-31T02:42:28;7.35;;;5.90;;
36855;SDS011;22788;51.434;6.786;2022-10-31T02:45:03;9.82;;;5.53;;
36855;SDS011;22788;51.434;6.786;2022-10-31T02:47:36;8.55;;;6.25;;
36855;SDS011;22788;51.434;6.786;2022-10-31T02:50:04;8.88;;;6.70;;
36855;SDS011;22788;51.434;6.786;2022-10-31T02:52:34;7.05;;;5.95;;
36855;SDS011;22788;51.434;6.786;2022-10-31T02:55:08;11.07;;;6.07;;
36855;SDS011;22788;51.434;6.786;2022-10-31T02:57:36;9.88;;;6.15;;
36855;SDS011;22788;51.434;6.786;2022-10-31T03:00:06;9.60;;;6.00;;
36855;SDS011;22788;51.434;6.786;2022-10-31T03:05:33;11.18;;;5.88;;
36855;SDS011;22788;51.434;6.786;2022-10-31T03:08:12;10.32;;;6.05;;
36855;SDS011;22788;51.434;6.786;2022-10-31T03:10:46;11.05;;;6.10;;
36855;SDS011;22788;51.434;6.786;2022-10-31T03:13:20;11.00;;;6.10;;
36855;SDS011;22788;51.434;6.786;2022-10-31T03:15:54;8.23;;;6.18;;
36855;SDS011;22788;51.434;6.786;2022-10-31T03:18:28;11.05;;;6.53;;
36855;SDS011;22788;51.434;6.786;2022-10-31T03:20:59;10.50;;;6.22;;
36855;SDS011;22788;51.434;6.786;2022-10-31T03:23:29;9.70;;;6.07;;
36855;SDS011;22788;51.434;6.786;2022-10-31T03:25:57;8.57;;;5.85;;
36855;SDS011;22788;51.434;6.786;2022-10-31T03:28:28;10.38;;;5.85;;
36855;SDS011;22788;51.434;6.786;2022-10-31T03:30:57;10.43;;;5.68;;
36855;SDS011;22788;51.434;6.786;2022-10-31T03:33:27;10.52;;;6.25;;
36855;SDS011;22788;51.434;6.786;2022-10-31T03:35:57;8.68;;;5.97;;
36855;SDS011;22788;51.434;6.786;2022-10-31T03:38:26;7.57;;;6.13;;
36855;SDS011;22788;51.434;6.786;2022-10-31T03:40:54;9.70;;;6.10;;
36855;SDS011;22788;51.434;6.786;2022-10-31T03:43:24;7.78;;;5.70;;
36855;SDS011;22788;51.434;6.786;2022-10-31T03:45:53;10.48;;;5.78;;
36855;SDS011;22788;51.434;6.786;2022-10-31T03:48:20;8.73;;;5.78;;
36855;SDS011;22788;51.434;6.786;2022-10-31T03:50:49;10.02;;;6.30;;
36855;SDS011;22788;51.434;6.786;2022-10-31T03:53:24;7.43;;;5.53;;
36855;SDS011;22788;51.434;6.786;2022-10-31T03:55:56;9.73;;;5.90;;
36855;SDS011;22788;51.434;6.786;2022-10-31T03:58:27;8.80;;;6.03;;
36855;SDS011;22788;51.434;6.786;2022-10-31T04:00:57;9.10;;;5.50;;
36855;SDS011;22788;51.434;6.786;2022-10-31T04:03:27;10.45;;;5.95;;
36855;SDS011;22788;51.434;6.786;2022-10-31T04:05:56;11.02;;;6.15;;
36855;SDS011;22788;51.434;6.786;2022-10-31T04:08:27;9.85;;;6.10;;
36855;SDS011;22788;51.434;6.786;2022-10-31T04:10:56;10.27;;;6.30;;
36855;SDS011;22788;51.434;6.786;2022-10-31T04:13:25;11.88;;;6.38;;
36855;SDS011;22788;51.434;6.786;2022-10-31T04:15:54;7.75;;;5.97;;
36855;SDS011;22788;51.434;6.786;2022-10-31T04:18:21;9.85;;;6.07;;
36855;SDS011;22788;51.434;6.786;2022-10-31T04:20:48;9.55;;;6.07;;
36855;SDS011;22788;51.434;6.786;2022-10-31T04:23:16;9.82;;;5.93;;
36855;SDS011;22788;51.434;6.786;2022-10-31T04:25:46;8.13;;;5.10;;
36855;SDS011;22788;51.434;6.786;2022-10-31T04:28:12;9.48;;;5.75;;
36855;SDS011;22788;51.434;6.786;2022-10-31T04:30:38;7.78;;;5.82;;
36855;SDS011;22788;51.434;6.786;2022-10-31T04:33:04;9.00;;;6.32;;
36855;SDS011;22788;51.434;6.786;2022-10-31T04:35:30;9.55;;;6.32;;
36855;SDS011;22788;51.434;6.786;2022-10-31T04:37:56;7.22;;;5.35;;
36855;SDS011;22788;51.434;6.786;2022-10-31T04:40:22;7.93;;;5.40;;
36855;SDS011;22788;51.434;6.786;2022-10-31T04:42:49;7.93;;;5.63;;
36855;SDS011;22788;51.434;6.786;2022-10-31T04:45:15;10.82;;;6.35;;
36855;SDS011;22788;51.434;6.786;2022-10-31T04:47:41;10.60;;;6.03;;
36855;SDS011;22788;51.434;6.786;2022-10-31T04:50:08;12.40;;;6.30;;
36855;SDS011;22788;51.434;6.786;2022-10-31T04:52:38;9.50;;;5.60;;
36855;SDS011;22788;51.434;6.786;2022-10-31T04:55:05;7.68;;;5.78;;
36855;SDS011;22788;51.434;6.786;2022-10-31T04:57:31;9.30;;;5.68;;
36855;SDS011;22788;51.434;6.786;2022-10-31T04:59:58;9.48;;;6.55;;
36855;SDS011;22788;51.434;6.786;2022-10-31T05:02:24;11.13;;;6.60;;
36855;SDS011;22788;51.434;6.786;2022-10-31T05:04:50;8.98;;;5.75;;
36855;SDS011;22788;51.434;6.786;2022-10-31T05:07:16;10.68;;;5.80;;
36855;SDS011;22788;51.434;6.786;2022-10-31T05:09:42;9.50;;;6.30;;
36855;SDS011;22788;51.434;6.786;2022-10-31T05:12:08;10.32;;;5.57;;
36855;SDS011;22788;51.434;6.786;2022-10-31T05:14:34;8.73;;;5.75;;
36855;SDS011;22788;51.434;6.786;2022-10-31T05:17:02;9.63;;;5.82;;
36855;SDS011;22788;51.434;6.786;2022-10-31T05:19:28;8.30;;;5.90;;
36855;SDS011;22788;51.434;6.786;2022-10-31T05:21:54;7.20;;;5.85;;
36855;SDS011;22788;51.434;6.786;2022-10-31T05:24:20;7.80;;;5.30;;
36855;SDS011;22788;51.434;6.786;2022-10-31T05:26:46;10.43;;;6.28;;
36855;SDS011;22788;51.434;6.786;2022-10-31T05:29:12;8.57;;;5.70;;
36855;SDS011;22788;51.434;6.786;2022-10-31T05:31:38;10.48;;;6.50;;
36855;SDS011;22788;51.434;6.786;2022-10-31T05:34:05;8.52;;;6.25;;
36855;SDS011;22788;51.434;6.786;2022-10-31T05:36:31;8.82;;;6.45;;
36855;SDS011;22788;51.434;6.786;2022-10-31T05:38:57;9.90;;;6.50;;
36855;SDS011;22788;51.434;6.786;2022-10-31T05:41:23;10.77;;;6.10;;
36855;SDS011;22788;51.434;6.786;2022-10-31T05:43:49;9.40;;;6.45;;
36855;SDS011;22788;51.434;6.786;2022-10-31T05:46:15;9.85;;;5.82;;
36855;SDS011;22788;51.434;6.786;2022-10-31T05:48:41;10.18;;;5.70;;
36855;SDS011;22788;51.434;6.786;2022-10-31T05:51:09;8.70;;;5.32;;
36855;SDS011;22788;51.434;6.786;2022-10-31T05:53:35;10.73;;;5.85;;
36855;SDS011;22788;51.434;6.786;2022-10-31T05:56:01;9.73;;;6.28;;
36855;SDS011;22788;51.434;6.786;2022-10-31T05:58:27;11.25;;;5.82;;
36855;SDS011;22788;51.434;6.786;2022-10-31T06:00:53;11.75;;;6.63;;
36855;SDS011;22788;51.434;6.786;2022-10-31T06:03:19;9.50;;;5.68;;
36855;SDS011;22788;51.434;6.786;2022-10-31T06:05:45;9.15;;;5.70;;
36855;SDS011;22788;51.434;6.786;2022-10-31T06:08:12;9.85;;;6.65;;
36855;SDS011;22788;51.434;6.786;2022-10-31T06:10:38;10.13;;;5.70;;
36855;SDS011;22788;51.434;6.786;2022-10-31T06:13:04;9.82;;;5.72;;
36855;SDS011;22788;51.434;6.786;2022-10-31T06:15:30;7.20;;;5.60;;
36855;SDS011;22788;51.434;6.786;2022-10-31T06:17:57;10.57;;;6.45;;
36855;SDS011;22788;51.434;6.786;2022-10-31T06:20:23;11.27;;;6.68;;
36855;SDS011;22788;51.434;6.786;2022-10-31T06:22:49;7.43;;;5.88;;
36855;SDS011;22788;51.434;6.786;2022-10-31T06:25:17;13.40;;;5.80;;
36855;SDS011;22788;51.434;6.786;2022-10-31T06:27:43;10.77;;;6.28;;
36855;SDS011;22788;51.434;6.786;2022-10-31T06:30:09;10.88;;;6.80;;
36855;SDS011;22788;51.434;6.786;2022-10-31T06:32:36;10.63;;;6.70;;
36855;SDS011;22788;51.434;6.786;2022-10-31T06:35:02;8.55;;;6.13;;
36855;SDS011;22788;51.434;6.786;2022-10-31T06:37:28;10.85;;;6.50;;
36855;SDS011;22788;51.434;6.786;2022-10-31T06:39:54;9.40;;;5.60;;
36855;SDS011;22788;51.434;6.786;2022-10-31T06:42:22;10.43;;;5.85;;
36855;SDS011;22788;51.434;6.786;2022-10-31T06:44:48;8.38;;;5.78;;
36855;SDS011;22788;51.434;6.786;2022-10-31T06:47:14;7.30;;;5.72;;
36855;SDS011;22788;51.434;6.786;2022-10-31T06:49:40;9.02;;;5.88;;
36855;SDS011;22788;51.434;6.786;2022-10-31T06:52:06;8.65;;;5.45;;
36855;SDS011;22788;51.434;6.786;2022-10-31T06:54:32;10.65;;;6.30;;
36855;SDS011;22788;51.434;6.786;2022-10-31T06:56:58;6.82;;;5.65;;
36855;SDS011;22788;51.434;6.786;2022-10-31T06:59:25;9.85;;;6.55;;
36855;SDS011;22788;51.434;6.786;2022-10-31T07:01:51;10.98;;;6.72;;
36855;SDS011;22788;51.434;6.786;2022-10-31T07:04:17;9.63;;;5.63;;
36855;SDS011;22788;51.434;6.786;2022-10-31T07:06:43;10.35;;;6.18;;
36855;SDS011;22788;51.434;6.786;2022-10-31T07:09:09;8.77;;;6.40;;
36855;SDS011;22788;51.434;6.786;2022-10-31T07:11:35;10.32;;;6.25;;
36855;SDS011;22788;51.434;6.786;2022-10-31T07:14:01;8.82;;;5.40;;
36855;SDS011;22788;51.434;6.786;2022-10-31T07:16:29;8.60;;;5.68;;
36855;SDS011;22788;51.434;6.786;2022-10-31T07:18:55;10.55;;;6.45;;
36855;SDS011;22788;51.434;6.786;2022-10-31T07:21:21;9.20;;;6.28;;
36855;SDS011;22788;51.434;6.786;2022-10-31T07:23:47;15.48;;;6.15;;
36855;SDS011;22788;51.434;6.786;2022-10-31T07:26:13;9.88;;;6.25;;
36855;SDS011;22788;51.434;6.786;2022-10-31T07:28:39;11.30;;;6.13;;
36855;SDS011;22788;51.434;6.786;2022-10-31T07:31:05;9.05;;;6.05;;
36855;SDS011;22788;51.434;6.786;2022-10-31T07:33:33;10.88;;;6.53;;
36855;SDS011;22788;51.434;6.786;2022-10-31T07:35:59;13.45;;;6.28;;
36855;SDS011;22788;51.434;6.786;2022-10-31T07:38:25;8.45;;;5.85;;
36855;SDS011;22788;51.434;6.786;2022-10-31T07:40:51;9.93;;;6.30;;
36855;SDS011;22788;51.434;6.786;2022-10-31T07:43:18;8.85;;;6.75;;
36855;SDS011;22788;51.434;6.786;2022-10-31T07:45:48;7.50;;;5.82;;
36855;SDS011;22788;51.434;6.786;2022-10-31T07:48:15;9.30;;;6.10;;
36855;SDS011;22788;51.434;6.786;2022-10-31T07:50:42;8.13;;;5.60;;
36855;SDS011;22788;51.434;6.786;2022-10-31T07:53:09;8.75;;;5.95;;
36855;SDS011;22788;51.434;6.786;2022-10-31T07:55:36;9.25;;;6.43;;
36855;SDS011;22788;51.434;6.786;2022-10-31T07:58:03;9.05;;;6.25;;
36855;SDS011;22788;51.434;6.786;2022-10-31T08:00:30;9.57;;;6.57;;
36855;SDS011;22788;51.434;6.786;2022-10-31T08:02:58;10.23;;;6.70;;
36855;SDS011;22788;51.434;6.786;2022-10-31T08:05:25;8.27;;;6.50;;
36855;SDS011;22788;51.434;6.786;2022-10-31T08:07:52;9.52;;;6.60;;
36855;SDS011;22788;51.434;6.786;2022-10-31T08:10:18;9.30;;;5.90;;
36855;SDS011;22788;51.434;6.786;2022-10-31T08:12:45;10.13;;;6.07;;
36855;SDS011;22788;51.434;6.786;2022-10-31T08:15:11;9.40;;;6.07;;
36855;SDS011;22788;51.434;6.786;2022-10-31T08:17:37;9.50;;;6.38;;
36855;SDS011;22788;51.434;6.786;2022-10-31T08:20:04;10.82;;;5.70;;
36855;SDS011;22788;51.434;6.786;2022-10-31T08:22:30;10.18;;;6.63;;
36855;SDS011;22788;51.434;6.786;2022-10-31T08:24:58;10.50;;;6.20;;
36855;SDS011;22788;51.434;6.786;2022-10-31T08:27:24;9.55;;;6.63;;
36855;SDS011;22788;51.434;6.786;2022-10-31T08:29:50;12.23;;;6.55;;
36855;SDS011;22788;51.434;6.786;2022-10-31T08:32:16;11.73;;;6.45;;
36855;SDS011;22788;51.434;6.786;2022-10-31T08:34:42;8.65;;;6.00;;
36855;SDS011;22788;51.434;6.786;2022-10-31T08:37:08;10.48;;;6.43;;
36855;SDS011;22788;51.434;6.786;2022-10-31T08:39:34;10.88;;;6.45;;
36855;SDS011;22788;51.434;6.786;2022-10-31T08:42:01;9.60;;;6.43;;
36855;SDS011;22788;51.434;6.786;2022-10-31T08:44:27;12.57;;;6.47;;
36855;SDS011;22788;51.434;6.786;2022-10-31T08:46:53;9.10;;;5.78;;
36855;SDS011;22788;51.434;6.786;2022-10-31T08:49:19;7.63;;;5.97;;
36855;SDS011;22788;51.434;6.786;2022-10-31T08:51:46;10.38;;;5.95;;
36855;SDS011;22788;51.434;6.786;2022-10-31T08:54:13;8.63;;;6.50;;
36855;SDS011;22788;51.434;6.786;2022-10-31T08:56:39;9.82;;;6.35;;
36855;SDS011;22788;51.434;6.786;2022-10-31T08:59:06;11.75;;;6.85;;
36855;SDS011;22788;51.434;6.786;2022-10-31T09:01:32;13.00;;;6.70;;
36855;SDS011;22788;51.434;6.786;2022-10-31T09:03:58;11.60;;;6.38;;
36855;SDS011;22788;51.434;6.786;2022-10-31T09:06:24;11.80;;;6.38;;
36855;SDS011;22788;51.434;6.786;2022-10-31T09:08:50;7.45;;;5.38;;
36855;SDS011;22788;51.434;6.786;2022-10-31T09:11:16;12.98;;;6.78;;
36855;SDS011;22788;51.434;6.786;2022-10-31T09:13:42;10.00;;;7.18;;
36855;SDS011;22788;51.434;6.786;2022-10-31T09:16:09;14.50;;;7.50;;
36855;SDS011;22788;51.434;6.786;2022-10-31T09:18:35;8.93;;;6.55;;
36855;SDS011;22788;51.434;6.786;2022-10-31T09:21:01;10.07;;;6.75;;
36855;SDS011;22788;51.434;6.786;2022-10-31T09:23:27;8.35;;;6.63;;
36855;SDS011;22788;51.434;6.786;2022-10-31T09:25:54;9.13;;;6.75;;
36855;SDS011;22788;51.434;6.786;2022-10-31T09:28:20;12.25;;;7.15;;
36855;SDS011;22788;51.434;6.786;2022-10-31T09:30:48;9.20;;;7.05;;
36855;SDS011;22788;51.434;6.786;2022-10-31T09:33:17;9.32;;;6.57;;
36855;SDS011;22788;51.434;6.786;2022-10-31T09:35:43;10.98;;;7.55;;
36855;SDS011;22788;51.434;6.786;2022-10-31T09:38:10;7.38;;;5.78;;
36855;SDS011;22788;51.434;6.786;2022-10-31T09:40:37;11.40;;;6.78;;
36855;SDS011;22788;51.434;6.786;2022-10-31T09:43:08;11.88;;;7.30;;
36855;SDS011;22788;51.434;6.786;2022-10-31T09:45:42;10.23;;;6.30;;
36855;SDS011;22788;51.434;6.786;2022-10-31T09:51:04;13.52;;;6.78;;
36855;SDS011;22788;51.434;6.786;2022-10-31T09:53:34;10.43;;;5.90;;
36855;SDS011;22788;51.434;6.786;2022-10-31T09:56:05;8.70;;;6.32;;
36855;SDS011;22788;51.434;6.786;2022-10-31T09:58:37;11.07;;;6.85;;
36855;SDS011;22788;51.434;6.786;2022-10-31T10:01:09;9.68;;;6.18;;
36855;SDS011;22788;51.434;6.786;2022-10-31T10:03:49;11.25;;;6.10;;
36855;SDS011;22788;51.434;6.786;2022-10-31T10:06:19;10.50;;;6.82;;
36855;SDS011;22788;51.434;6.786;2022-10-31T10:08:48;12.00;;;7.05;;
36855;SDS011;22788;51.434;6.786;2022-10-31T10:11:19;10.85;;;7.30;;
36855;SDS011;22788;51.434;6.786;2022-10-31T10:13:58;12.40;;;7.13;;
36855;SDS011;22788;51.434;6.786;2022-10-31T10:16:36;10.65;;;7.18;;
36855;SDS011;22788;51.434;6.786;2022-10-31T10:19:21;9.52;;;6.82;;
36855;SDS011;22788;51.434;6.786;2022-10-31T10:21:57;12.65;;;7.15;;
36855;SDS011;22788;51.434;6.786;2022-10-31T10:24:32;11.18;;;6.75;;
36855;SDS011;22788;51.434;6.786;2022-10-31T10:27:10;12.73;;;8.20;;
36855;SDS011;22788;51.434;6.786;2022-10-31T10:29:42;12.70;;;6.80;;
36855;SDS011;22788;51.434;6.786;2022-10-31T10:32:14;11.50;;;7.68;;
36855;SDS011;22788;51.434;6.786;2022-10-31T10:34:48;12.32;;;7.43;;
36855;SDS011;22788;51.434;6.786;2022-10-31T10:37:20;12.20;;;8.30;;
36855;SDS011;22788;51.434;6.786;2022-10-31T10:39:53;11.35;;;8.00;;
36855;SDS011;22788;51.434;6.786;2022-10-31T10:42:21;10.40;;;6.53;;
36855;SDS011;22788;51.434;6.786;2022-10-31T10:44:50;13.80;;;8.68;;
36855;SDS011;22788;51.434;6.786;2022-10-31T10:47:17;11.25;;;7.05;;
36855;SDS011;22788;51.434;6.786;2022-10-31T10:49:44;11.70;;;7.68;;
36855;SDS011;22788;51.434;6.786;2022-10-31T10:52:19;12.43;;;7.40;;
36855;SDS011;22788;51.434;6.786;2022-10-31T10:54:57;13.35;;;7.82;;
36855;SDS011;22788;51.434;6.786;2022-10-31T10:57:32;14.27;;;8.52;;
36855;SDS011;22788;51.434;6.786;2022-10-31T11:00:21;12.32;;;7.80;;
36855;SDS011;22788;51.434;6.786;2022-10-31T11:02:48;11.13;;;8.02;;
36855;SDS011;22788;51.434;6.786;2022-10-31T11:05:15;12.73;;;7.20;;
36855;SDS011;22788;51.434;6.786;2022-10-31T11:07:48;13.70;;;7.90;;
36855;SDS011;22788;51.434;6.786;2022-10-31T11:10:15;10.38;;;7.97;;
36855;SDS011;22788;51.434;6.786;2022-10-31T11:12:42;17.52;;;7.80;;
36855;SDS011;22788;51.434;6.786;2022-10-31T11:15:17;11.80;;;7.78;;
36855;SDS011;22788;51.434;6.786;2022-10-31T11:17:47;12.48;;;8.02;;
36855;SDS011;22788;51.434;6.786;2022-10-31T11:20:23;12.50;;;7.60;;
36855;SDS011;22788;51.434;6.786;2022-10-31T11:23:01;12.57;;;7.88;;
36855;SDS011;22788;51.434;6.786;2022-10-31T11:25:47;12.05;;;7.32;;
36855;SDS011;22788;51.434;6.786;2022-10-31T11:28:15;10.93;;;7.57;;
36855;SDS011;22788;51.434;6.786;2022-10-31T11:30:42;14.15;;;8.55;;
36855;SDS011;22788;51.434;6.786;2022-10-31T11:33:12;14.18;;;8.55;;
36855;SDS011;22788;51.434;6.786;2022-10-31T11:35:44;14.85;;;8.18;;
36855;SDS011;22788;51.434;6.786;2022-10-31T11:38:13;12.45;;;8.05;;
36855;SDS011;22788;51.434;6.786;2022-10-31T11:40:50;14.88;;;8.02;;
36855;SDS011;22788;51.434;6.786;2022-10-31T11:43:18;13.23;;;8.65;;
36855;SDS011;22788;51.434;6.786;2022-10-31T11:45:45;14.50;;;8.88;;
36855;SDS011;22788;51.434;6.786;2022-10-31T11:48:15;16.73;;;7.63;;
36855;SDS011;22788;51.434;6.786;2022-10-31T11:50:46;11.75;;;7.30;;
36855;SDS011;22788;51.434;6.786;2022-10-31T11:53:16;9.40;;;7.25;;
36855;SDS011;22788;51.434;6.786;2022-10-31T11:55:44;11.93;;;7.95;;
36855;SDS011;22788;51.434;6.786;2022-10-31T11:58:21;21.33;;;10.45;;
36855;SDS011;22788;51.434;6.786;2022-10-31T12:00:49;11.95;;;7.97;;
36855;SDS011;22788;51.434;6.786;2022-10-31T12:03:23;10.55;;;7.25;;
36855;SDS011;22788;51.434;6.786;2022-10-31T12:05:58;11.25;;;7.32;;
36855;SDS011;22788;51.434;6.786;2022-10-31T12:08:30;10.85;;;6.95;;
36855;SDS011;22788;51.434;6.786;2022-10-31T12:11:01;12.07;;;7.38;;
36855;SDS011;22788;51.434;6.786;2022-10-31T12:13:42;11.70;;;7.68;;
36855;SDS011;22788;51.434;6.786;2022-10-31T12:16:22;9.10;;;6.35;;
36855;SDS011;22788;51.434;6.786;2022-10-31T12:18:56;10.85;;;7.30;;
36855;SDS011;22788;51.434;6.786;2022-10-31T12:24:27;12.88;;;7.38;;
36855;SDS011;22788;51.434;6.786;2022-10-31T12:27:03;10.15;;;6.55;;
36855;SDS011;22788;51.434;6.786;2022-10-31T12:29:45;10.02;;;6.47;;
36855;SDS011;22788;51.434;6.786;2022-10-31T12:32:23;9.93;;;6.45;;
36855;SDS011;22788;51.434;6.786;2022-10-31T12:37:54;9.73;;;6.40;;
36855;SDS011;22788;51.434;6.786;2022-10-31T12:40:37;10.23;;;6.90;;
36855;SDS011;22788;51.434;6.786;2022-10-31T12:43:20;13.50;;;6.07;;
36855;SDS011;22788;51.434;6.786;2022-10-31T12:45:56;10.35;;;7.55;;
36855;SDS011;22788;51.434;6.786;2022-10-31T12:48:30;9.05;;;6.80;;
36855;SDS011;22788;51.434;6.786;2022-10-31T12:51:28;11.93;;;6.47;;
36855;SDS011;22788;51.434;6.786;2022-10-31T12:54:14;12.07;;;6.80;;
36855;SDS011;22788;51.434;6.786;2022-10-31T12:56:53;9.70;;;6.65;;
36855;SDS011;22788;51.434;6.786;2022-10-31T12:59:29;9.70;;;6.20;;
36855;SDS011;22788;51.434;6.786;2022-10-31T13:01:59;11.65;;;7.88;;
36855;SDS011;22788;51.434;6.786;2022-10-31T13:04:36;13.50;;;7.60;;
36855;SDS011;22788;51.434;6.786;2022-10-31T13:07:09;15.00;;;7.15;;
36855;SDS011;22788;51.434;6.786;2022-10-31T13:09:40;9.43;;;6.82;;
36855;SDS011;22788;51.434;6.786;2022-10-31T13:12:13;11.05;;;6.82;;
36855;SDS011;22788;51.434;6.786;2022-10-31T13:14:44;9.70;;;6.53;;
36855;SDS011;22788;51.434;6.786;2022-10-31T13:17:16;10.02;;;6.90;;
36855;SDS011;22788;51.434;6.786;2022-10-31T13:19:47;10.82;;;7.43;;
36855;SDS011;22788;51.434;6.786;2022-10-31T13:22:17;10.95;;;6.63;;
36855;SDS011;22788;51.434;6.786;2022-10-31T13:24:47;10.55;;;7.00;;
36855;SDS011;22788;51.434;6.786;2022-10-31T13:27:21;10.25;;;7.22;;
36855;SDS011;22788;51.434;6.786;2022-10-31T13:29:54;9.50;;;7.05;;
36855;SDS011;22788;51.434;6.786;2022-10-31T13:32:26;7.45;;;5.72;;
36855;SDS011;22788;51.434;6.786;2022-10-31T13:34:55;11.45;;;6.30;;
36855;SDS011;22788;51.434;6.786;2022-10-31T13:37:27;12.70;;;6.82;;
36855;SDS011;22788;51.434;6.786;2022-10-31T13:40:04;11.07;;;7.00;;
36855;SDS011;22788;51.434;6.786;2022-10-31T13:42:41;9.65;;;5.80;;
36855;SDS011;22788;51.434;6.786;2022-10-31T13:45:16;10.77;;;6.22;;
36855;SDS011;22788;51.434;6.786;2022-10-31T13:47:54;12.50;;;7.00;;
36855;SDS011;22788;51.434;6.786;2022-10-31T13:50:22;13.10;;;6.70;;
36855;SDS011;22788;51.434;6.786;2022-10-31T13:52:50;9.05;;;5.80;;
36855;SDS011;22788;51.434;6.786;2022-10-31T13:55:35;10.85;;;6.38;;
36855;SDS011;22788;51.434;6.786;2022-10-31T13:58:05;8.27;;;6.03;;
36855;SDS011;22788;51.434;6.786;2022-10-31T14:00:57;9.98;;;5.85;;
36855;SDS011;22788;51.434;6.786;2022-10-31T14:03:30;10.02;;;6.20;;
36855;SDS011;22788;51.434;6.786;2022-10-31T14:05:58;10.75;;;6.38;;
36855;SDS011;22788;51.434;6.786;2022-10-31T14:08:25;10.00;;;6.28;;
36855;SDS011;22788;51.434;6.786;2022-10-31T14:10:51;9.82;;;5.50;;
36855;SDS011;22788;51.434;6.786;2022-10-31T14:13:21;7.32;;;5.68;;
36855;SDS011;22788;51.434;6.786;2022-10-31T14:15:52;12.13;;;6.30;;
36855;SDS011;22788;51.434;6.786;2022-10-31T14:18:21;11.02;;;5.78;;
36855;SDS011;22788;51.434;6.786;2022-10-31T14:20:49;10.93;;;6.72;;
36855;SDS011;22788;51.434;6.786;2022-10-31T14:26:18;11.07;;;5.50;;
36855;SDS011;22788;51.434;6.786;2022-10-31T14:28:57;11.98;;;6.07;;
36855;SDS011;22788;51.434;6.786;2022-10-31T14:31:31;11.45;;;5.70;;
36855;SDS011;22788;51.434;6.786;2022-10-31T14:34:01;10.57;;;5.80;;
36855;SDS011;22788;51.434;6.786;2022-10-31T14:36:34;13.07;;;6.60;;
36855;SDS011;22788;51.434;6.786;2022-10-31T14:39:08;9.75;;;6.18;;
36855;SDS011;22788;51.434;6.786;2022-10-31T14:41:46;8.05;;;4.90;;
36855;SDS011;22788;51.434;6.786;2022-10-31T14:47:23;7.20;;;5.15;;
36855;SDS011;22788;51.434;6.786;2022-10-31T14:50:10;7.60;;;4.85;;
36855;SDS011;22788;51.434;6.786;2022-10-31T14:52:48;7.55;;;5.20;;
36855;SDS011;22788;51.434;6.786;2022-10-31T14:55:17;10.82;;;5.07;;
36855;SDS011;22788;51.434;6.786;2022-10-31T14:57:46;7.07;;;5.25;;
36855;SDS011;22788;51.434;6.786;2022-10-31T15:00:17;9.63;;;4.73;;
36855;SDS011;22788;51.434;6.786;2022-10-31T15:02:46;7.80;;;4.72;;
36855;SDS011;22788;51.434;6.786;2022-10-31T15:05:19;10.23;;;5.95;;
36855;SDS011;22788;51.434;6.786;2022-10-31T15:07:49;9.70;;;5.30;;
36855;SDS011;22788;51.434;6.786;2022-10-31T15:10:19;9.07;;;4.75;;
36855;SDS011;22788;51.434;6.786;2022-10-31T15:12:47;7.22;;;5.00;;